SARI METAR and TAF weather

Enter ICAO airport designator
Station Type Date Time Source
SARI METAR 2018/12/11 17:00 UTC NOAA

SARI 111700Z 36014KT 9999 SCT035 36/17 Q1014


Station Type Date Time Source
SARI Decoded METAR 2018/12/11 17:00 UTC NOAA

Iguazu Aerodrome, Argentina (SARI) 25-44S 054-28W 270M
Dec 11, 2018 - 12:00 PM EST / 2018.12.11 1700 UTC
Wind: from the N (360 degrees) at 16 MPH (14 KT):0
Visibility: greater than 7 mile(s):0
Sky conditions: partly cloudy
Temperature: 96 F (36 C)
Heat index: 96.8 F (36.0 C):1
Dew Point: 62 F (17 C)
Relative Humidity: 32%
Pressure (altimeter): 29.94 in. Hg (1014 hPa)
ob: SARI 111700Z 36014KT 9999 SCT035 36/17 Q1014
cycle: 17

Station Type Date Time Source
SARI TAF 2018/12/11 18:24 UTC NOAA

TAF SARI 111700Z 1118/1218 36015KT 9999 SCT035 TX38/1119Z TN23/1209Z
BECMG 1123/1124 36005KT


Example: see airport list